createdAt,value
2022-09-21T00:01:41.093Z,5.50
2022-09-21T00:11:38.750Z,5.40
2022-09-21T00:16:41.556Z,5.40
2022-09-21T00:19:10.263Z,6.50
2022-09-21T00:21:39.308Z,5.20
2022-09-21T00:24:08.685Z,5.20
2022-09-21T00:26:37.036Z,5.20
2022-09-21T00:29:06.887Z,5.20
2022-09-21T00:31:35.326Z,5.20
2022-09-21T00:34:07.823Z,7.90
2022-09-21T00:39:05.106Z,5.20
2022-09-21T00:41:35.324Z,5.30
2022-09-21T00:44:33.165Z,5.30
2022-09-21T00:47:10.807Z,5.30
2022-09-21T00:49:42.589Z,5.20
2022-09-21T00:52:14.822Z,5.70
2022-09-21T00:54:49.992Z,5.20
2022-09-21T00:57:21.930Z,5.10
2022-09-21T00:59:53.291Z,5.70
2022-09-21T01:02:22.463Z,4.90
2022-09-21T01:04:55.689Z,4.90
2022-09-21T01:07:30.605Z,4.90
2022-09-21T01:12:56.878Z,4.90
2022-09-21T01:15:39.426Z,4.90
2022-09-21T01:18:21.228Z,4.90
2022-09-21T01:21:18.319Z,4.80
2022-09-21T01:24:37.481Z,4.80
2022-09-21T01:27:46.993Z,4.80
2022-09-21T01:30:20.024Z,4.70
2022-09-21T01:32:57.423Z,4.70
2022-09-21T01:35:33.548Z,4.70
2022-09-21T01:38:08.453Z,4.70
2022-09-21T01:40:43.553Z,4.60
2022-09-21T01:43:19.176Z,4.50
2022-09-21T01:45:54.884Z,4.60
2022-09-21T01:48:25.700Z,5.70
2022-09-21T01:50:58.401Z,4.60
2022-09-21T01:53:34.765Z,4.50
2022-09-21T01:56:11.631Z,4.50
2022-09-21T01:58:51.200Z,4.50
2022-09-21T02:01:28.523Z,4.40
2022-09-21T02:06:32.997Z,4.40
2022-09-21T02:09:01.777Z,4.30
2022-09-21T02:11:29.973Z,4.30
2022-09-21T02:19:22.137Z,4.30
2022-09-21T02:22:05.089Z,4.30
2022-09-21T02:27:27.667Z,4.40
2022-09-21T02:30:07.857Z,4.40
2022-09-21T02:32:50.430Z,4.40
2022-09-21T02:35:32.582Z,4.40
2022-09-21T02:38:12.102Z,4.80
2022-09-21T02:40:50.485Z,4.20
2022-09-21T02:43:25.864Z,4.20
2022-09-21T02:46:01.299Z,4.10
2022-09-21T02:48:37.987Z,4.10
2022-09-21T02:51:14.025Z,4.00
2022-09-21T02:53:44.347Z,4.00
2022-09-21T02:58:49.879Z,4.00
2022-09-21T03:01:20.244Z,4.00
2022-09-21T03:03:50.215Z,4.10
2022-09-21T03:06:18.404Z,3.10
2022-09-21T03:08:47.606Z,4.00
2022-09-21T03:11:18.389Z,4.00
2022-09-21T03:13:47.286Z,3.90
2022-09-21T03:16:15.648Z,3.80
2022-09-21T03:18:44.452Z,3.80
2022-09-21T03:21:14.835Z,3.70
2022-09-21T03:23:43.264Z,2.50
2022-09-21T03:26:11.490Z,3.60
2022-09-21T03:28:39.877Z,3.70
2022-09-21T03:33:36.896Z,3.70
2022-09-21T03:36:05.172Z,3.60
2022-09-21T03:38:34.890Z,3.50
2022-09-21T03:43:32.033Z,2.10
2022-09-21T03:46:00.599Z,3.50
2022-09-21T03:48:28.865Z,3.40
2022-09-21T03:53:26.402Z,3.40
2022-09-21T03:55:55.950Z,3.40
2022-09-21T04:00:52.796Z,4.30
2022-09-21T04:03:21.015Z,3.40
2022-09-21T04:05:49.503Z,3.40
2022-09-21T04:08:17.733Z,2.10
2022-09-21T04:10:45.879Z,3.50
2022-09-21T04:13:17.595Z,3.50
2022-09-21T04:15:45.786Z,3.50
2022-09-21T04:18:13.981Z,3.50
2022-09-21T04:20:42.196Z,3.40
2022-09-21T04:23:10.412Z,3.50
2022-09-21T04:25:38.602Z,3.40
2022-09-21T04:28:07.590Z,3.40
2022-09-21T04:30:38.113Z,3.40
2022-09-21T04:33:06.701Z,3.40
2022-09-21T04:35:34.991Z,3.50
2022-09-21T04:38:03.316Z,5.80
2022-09-21T04:40:31.532Z,3.40
2022-09-21T04:42:59.787Z,3.30
2022-09-21T04:45:27.998Z,3.30
2022-09-21T04:47:57.651Z,3.20
2022-09-21T04:53:05.835Z,3.20
2022-09-21T04:55:34.298Z,3.30
2022-09-21T05:03:01.710Z,3.30
2022-09-21T05:05:29.954Z,3.30
2022-09-21T05:07:58.149Z,3.30
2022-09-21T05:10:25.727Z,3.30
2022-09-21T05:12:53.941Z,3.30
2022-09-21T05:15:22.310Z,3.40
2022-09-21T05:17:50.538Z,3.40
2022-09-21T05:20:20.151Z,3.40
2022-09-21T05:25:17.544Z,3.40
2022-09-21T05:27:45.792Z,3.20
2022-09-21T05:30:16.039Z,3.40
2022-09-21T05:32:53.157Z,3.40
2022-09-21T05:35:34.144Z,3.50
2022-09-21T05:38:13.453Z,3.50
2022-09-21T05:40:42.509Z,3.50
2022-09-21T05:43:11.980Z,3.60
2022-09-21T05:48:20.674Z,3.80
2022-09-21T05:51:00.267Z,3.90
2022-09-21T05:56:49.795Z,4.40
2022-09-21T05:59:45.165Z,4.80
2022-09-21T06:02:28.978Z,5.10
2022-09-21T06:05:00.747Z,5.40
2022-09-21T06:07:30.254Z,5.90
2022-09-21T06:09:58.443Z,6.10
2022-09-21T06:12:26.686Z,6.40
2022-09-21T06:14:56.397Z,8.20
2022-09-21T06:17:27.314Z,7.00
2022-09-21T06:19:55.912Z,7.20
2022-09-21T06:22:24.094Z,7.50
2022-09-21T06:24:53.643Z,7.70
2022-09-21T06:27:21.867Z,7.90
2022-09-21T06:29:50.120Z,8.10
2022-09-21T06:32:20.739Z,8.30
2022-09-21T06:34:49.905Z,8.40
2022-09-21T06:39:46.796Z,8.60
2022-09-21T06:42:16.381Z,8.90
2022-09-21T06:44:44.770Z,9.20
2022-09-21T06:47:12.982Z,9.10
2022-09-21T06:52:11.025Z,10.60
2022-09-21T06:54:39.685Z,10.30
2022-09-21T06:59:37.821Z,10.70
2022-09-21T07:02:06.308Z,10.80
2022-09-21T07:04:34.589Z,11.20
2022-09-21T07:07:04.683Z,11.30
2022-09-21T07:12:22.027Z,11.70
2022-09-21T07:14:51.561Z,11.80
2022-09-21T07:17:19.993Z,11.90
2022-09-21T07:19:48.252Z,12.10
2022-09-21T07:22:16.483Z,12.30
2022-09-21T07:24:44.774Z,12.70
2022-09-21T07:27:13.034Z,13.00
2022-09-21T07:29:41.474Z,13.20
2022-09-21T07:32:11.082Z,13.30
2022-09-21T07:34:39.300Z,13.70
2022-09-21T07:37:07.524Z,13.90
2022-09-21T07:39:36.497Z,14.00
2022-09-21T07:42:04.867Z,14.20
2022-09-21T07:44:34.169Z,14.40
2022-09-21T07:49:33.087Z,14.80
2022-09-21T07:52:05.052Z,14.90
2022-09-21T07:57:23.579Z,15.70
2022-09-21T07:59:51.834Z,16.20
2022-09-21T08:04:50.522Z,16.10
2022-09-21T08:07:19.173Z,16.10
2022-09-21T08:09:49.379Z,16.20
2022-09-21T08:12:20.563Z,16.40
2022-09-21T08:14:48.863Z,16.40
2022-09-21T08:17:17.449Z,16.60
2022-09-21T08:19:45.767Z,17.10
2022-09-21T08:22:15.453Z,17.20
2022-09-21T08:24:44.546Z,17.10
2022-09-21T08:27:12.910Z,17.00
2022-09-21T08:32:13.436Z,17.40
2022-09-21T08:34:51.190Z,17.50
2022-09-21T08:37:21.951Z,17.30
2022-09-21T08:39:50.145Z,17.70
2022-09-21T08:42:40.912Z,17.70
2022-09-21T08:45:17.606Z,18.90
2022-09-21T08:47:49.409Z,18.10
2022-09-21T08:50:40.749Z,18.10
2022-09-21T08:53:15.940Z,18.30
2022-09-21T08:55:44.287Z,18.40
2022-09-21T08:58:24.407Z,18.70
2022-09-21T09:01:09.603Z,18.60
2022-09-21T09:04:04.381Z,19.10
2022-09-21T09:06:48.063Z,19.10
2022-09-21T09:09:45.835Z,19.10
2022-09-21T09:12:34.085Z,19.50
2022-09-21T09:15:36.573Z,19.70
2022-09-21T09:18:19.797Z,19.90
2022-09-21T09:20:57.133Z,20.10
2022-09-21T09:23:29.265Z,20.10
2022-09-21T09:26:09.001Z,20.40
2022-09-21T09:28:50.104Z,20.60
2022-09-21T09:31:26.169Z,20.90
2022-09-21T09:34:03.166Z,20.90
2022-09-21T09:36:57.274Z,20.80
2022-09-21T09:39:23.608Z,20.90
2022-09-21T09:42:41.315Z,21.00
2022-09-21T09:45:43.231Z,20.90
2022-09-21T09:48:43.033Z,21.10
2022-09-21T09:51:14.003Z,20.70
2022-09-21T09:53:42.389Z,20.70
2022-09-21T09:56:13.153Z,20.40
2022-09-21T09:58:49.614Z,20.50
2022-09-21T10:01:42.995Z,20.80
2022-09-21T10:04:14.167Z,20.70
2022-09-21T10:06:46.632Z,20.70
2022-09-21T10:09:27.575Z,21.00
2022-09-21T10:12:01.565Z,20.60
2022-09-21T10:14:36.089Z,21.70
2022-09-21T10:17:09.256Z,20.80
2022-09-21T10:19:38.198Z,20.80
2022-09-21T10:22:07.284Z,20.90
2022-09-21T10:24:40.743Z,20.90
2022-09-21T10:27:15.790Z,20.80
2022-09-21T10:29:48.393Z,21.30
2022-09-21T10:32:23.887Z,21.30
2022-09-21T10:35:15.317Z,21.50
2022-09-21T10:37:47.152Z,22.10
2022-09-21T10:40:30.803Z,22.00
2022-09-21T10:43:01.440Z,21.90
2022-09-21T10:45:34.789Z,21.70
2022-09-21T10:48:14.624Z,21.80
2022-09-21T10:50:45.952Z,21.70
2022-09-21T10:53:24.872Z,21.90
2022-09-21T10:56:17.909Z,21.70
2022-09-21T10:59:22.479Z,22.00
2022-09-21T11:01:55.577Z,22.30
2022-09-21T11:04:42.918Z,22.10
2022-09-21T11:07:20.238Z,22.50
2022-09-21T11:10:04.183Z,22.70
2022-09-21T11:12:54.207Z,22.50
2022-09-21T11:15:39.937Z,22.80
2022-09-21T11:18:21.765Z,22.50
2022-09-21T11:20:57.421Z,22.80
2022-09-21T11:23:48.474Z,22.70
2022-09-21T11:26:30.378Z,22.90
2022-09-21T11:29:06.954Z,22.70
2022-09-21T11:32:06.087Z,22.50
2022-09-21T11:35:27.444Z,22.00
2022-09-21T11:38:10.683Z,22.20
2022-09-21T11:41:19.569Z,22.50
2022-09-21T11:44:14.549Z,22.00
2022-09-21T11:46:52.842Z,21.80
2022-09-21T11:49:42.613Z,23.00
2022-09-21T11:52:33.212Z,22.20
2022-09-21T11:55:30.244Z,22.30
2022-09-21T11:58:11.513Z,22.40
2022-09-21T12:01:02.789Z,22.30
2022-09-21T12:04:18.088Z,21.90
2022-09-21T12:07:08.037Z,21.60
2022-09-21T12:12:34.820Z,21.10
2022-09-21T12:15:14.961Z,21.20
2022-09-21T12:17:58.476Z,21.70
2022-09-21T12:20:43.869Z,22.10
2022-09-21T12:23:19.943Z,22.30
2022-09-21T12:25:57.245Z,21.60
2022-09-21T12:28:32.391Z,21.70
2022-09-21T12:31:05.523Z,21.70
2022-09-21T12:33:42.936Z,22.20
2022-09-21T12:36:18.002Z,22.00
2022-09-21T12:38:57.352Z,22.20
2022-09-21T12:41:37.757Z,22.30
2022-09-21T12:44:18.659Z,22.30
2022-09-21T12:46:53.585Z,22.20
2022-09-21T12:49:31.296Z,21.80
2022-09-21T12:52:06.825Z,21.50
2022-09-21T12:54:46.858Z,21.30
2022-09-21T12:58:13.700Z,21.00
2022-09-21T13:00:27.368Z,21.30
2022-09-21T13:03:07.150Z,21.30
2022-09-21T13:05:53.088Z,21.30
2022-09-21T13:08:29.192Z,21.40
2022-09-21T13:11:04.602Z,21.60
2022-09-21T13:13:41.564Z,21.80
2022-09-21T13:18:59.421Z,20.30
2022-09-21T13:21:30.952Z,19.20
2022-09-21T13:24:02.641Z,19.00
2022-09-21T13:26:40.067Z,19.30
2022-09-21T13:29:32.909Z,19.20
2022-09-21T13:32:03.802Z,19.40
2022-09-21T13:37:35.547Z,19.80
2022-09-21T13:40:50.278Z,19.90
2022-09-21T13:43:26.509Z,20.00
2022-09-21T13:48:30.527Z,19.70
2022-09-21T13:51:02.822Z,19.60
2022-09-21T13:53:41.964Z,20.20
2022-09-21T13:56:25.446Z,20.30
2022-09-21T13:58:58.344Z,20.50
2022-09-21T14:01:52.454Z,20.60
2022-09-21T14:04:28.100Z,20.70
2022-09-21T14:06:59.290Z,20.90
2022-09-21T14:09:31.627Z,20.70
2022-09-21T14:12:06.293Z,20.30
2022-09-21T14:14:38.239Z,20.40
2022-09-21T14:17:36.300Z,20.60
2022-09-21T14:20:08.248Z,20.50
2022-09-21T14:22:46.730Z,20.40
2022-09-21T14:25:53.231Z,20.10
2022-09-21T14:28:35.548Z,19.50
2022-09-21T14:31:09.142Z,19.50
2022-09-21T14:33:49.164Z,18.80
2022-09-21T14:36:24.763Z,18.50
2022-09-21T14:39:00.479Z,18.40
2022-09-21T14:41:37.942Z,18.40
2022-09-21T14:44:06.452Z,18.60
2022-09-21T14:49:41.841Z,18.60
2022-09-21T14:52:43.550Z,18.30
2022-09-21T14:55:25.420Z,17.90
2022-09-21T14:58:26.163Z,17.60
2022-09-21T15:00:55.427Z,16.90
2022-09-21T15:04:04.544Z,16.50
2022-09-21T15:06:58.107Z,16.30
2022-09-21T15:10:09.587Z,16.40
2022-09-21T15:12:48.665Z,16.50
2022-09-21T15:15:36.929Z,16.50
2022-09-21T15:18:20.479Z,16.40
2022-09-21T15:21:01.309Z,16.30
2022-09-21T15:23:35.283Z,16.30
2022-09-21T15:26:11.039Z,16.30
2022-09-21T15:29:08.957Z,16.00
2022-09-21T15:31:42.977Z,15.90
2022-09-21T15:34:13.854Z,15.80
2022-09-21T15:36:45.579Z,15.80
2022-09-21T15:39:30.085Z,15.60
2022-09-21T15:42:22.737Z,15.70
2022-09-21T15:45:06.107Z,15.40
2022-09-21T15:47:35.347Z,15.40
2022-09-21T15:50:04.091Z,15.20
2022-09-21T15:52:38.304Z,15.10
2022-09-21T15:55:18.050Z,15.00
2022-09-21T15:57:48.005Z,14.90
2022-09-21T16:00:26.998Z,14.80
2022-09-21T16:03:05.630Z,14.70
2022-09-21T16:05:56.325Z,14.60
2022-09-21T16:08:33.508Z,14.50
2022-09-21T16:11:37.794Z,14.40
2022-09-21T16:17:21.217Z,14.00
2022-09-21T16:20:21.237Z,13.90
2022-09-21T16:25:32.486Z,13.70
2022-09-21T16:28:04.860Z,13.60
2022-09-21T16:30:51.103Z,13.50
2022-09-21T16:33:44.199Z,13.60
2022-09-21T16:36:50.237Z,13.40
2022-09-21T16:39:21.177Z,13.30
2022-09-21T16:44:26.164Z,13.10
2022-09-21T16:46:59.041Z,12.80
2022-09-21T16:49:31.340Z,12.80
2022-09-21T16:52:00.418Z,12.70
2022-09-21T16:54:29.806Z,12.60
2022-09-21T16:57:01.319Z,12.50
2022-09-21T16:59:33.218Z,12.30
2022-09-21T17:02:04.235Z,12.20
2022-09-21T17:04:34.745Z,12.00
2022-09-21T17:07:05.025Z,11.90
2022-09-21T17:09:38.381Z,11.60
2022-09-21T17:12:09.200Z,11.50
2022-09-21T17:14:44.328Z,11.00
2022-09-21T17:17:19.564Z,11.10
2022-09-21T17:19:50.096Z,10.90
2022-09-21T17:22:19.861Z,10.70
2022-09-21T17:24:52.107Z,10.50
2022-09-21T17:27:23.246Z,10.40
2022-09-21T17:29:55.211Z,10.20
2022-09-21T17:32:25.855Z,9.30
2022-09-21T17:35:02.117Z,9.90
2022-09-21T17:37:32.383Z,11.00
2022-09-21T17:40:01.172Z,9.70
2022-09-21T17:42:30.107Z,9.60
2022-09-21T17:45:15.753Z,9.70
2022-09-21T17:47:44.488Z,9.40
2022-09-21T17:50:26.248Z,9.40
2022-09-21T17:53:14.370Z,9.40
2022-09-21T17:58:45.492Z,9.30
2022-09-21T18:01:30.984Z,9.30
2022-09-21T18:04:00.652Z,9.20
2022-09-21T18:06:29.677Z,9.10
2022-09-21T18:09:01.661Z,9.10
2022-09-21T18:14:41.162Z,9.00
2022-09-21T18:17:38.441Z,9.00
2022-09-21T18:20:23.561Z,8.80
2022-09-21T18:23:03.673Z,8.80
2022-09-21T18:25:47.551Z,8.70
2022-09-21T18:28:28.858Z,8.60
2022-09-21T18:31:08.501Z,8.60
2022-09-21T18:33:56.804Z,8.60
2022-09-21T18:36:33.796Z,8.50
2022-09-21T18:39:22.510Z,8.50
2022-09-21T18:42:16.660Z,8.50
2022-09-21T18:44:57.552Z,8.40
2022-09-21T18:47:36.422Z,8.40
2022-09-21T18:50:24.630Z,8.40
2022-09-21T18:53:06.556Z,8.40
2022-09-21T18:55:37.275Z,8.30
2022-09-21T18:58:06.374Z,8.30
2022-09-21T19:00:35.657Z,8.30
2022-09-21T19:06:15.871Z,8.20
2022-09-21T19:11:34.917Z,8.30
2022-09-21T19:14:18.624Z,8.20
2022-09-21T19:17:06.135Z,8.20
2022-09-21T19:19:46.923Z,8.10
2022-09-21T19:22:29.898Z,8.10
2022-09-21T19:25:06.644Z,8.00
2022-09-21T19:27:40.188Z,8.10
2022-09-21T19:30:12.763Z,8.10
2022-09-21T19:32:46.997Z,8.00
2022-09-21T19:35:23.611Z,8.00
2022-09-21T19:37:55.952Z,8.00
2022-09-21T19:40:27.831Z,8.10
2022-09-21T19:43:23.105Z,8.10
2022-09-21T19:46:22.126Z,8.10
2022-09-21T19:48:56.965Z,8.10
2022-09-21T19:51:49.073Z,8.00
2022-09-21T19:54:40.252Z,8.00
2022-09-21T19:57:33.277Z,8.00
2022-09-21T20:00:03.261Z,8.00
2022-09-21T20:02:40.547Z,8.00
2022-09-21T20:05:16.080Z,8.00
2022-09-21T20:07:55.711Z,7.90
2022-09-21T20:13:22.046Z,7.00
2022-09-21T20:15:57.488Z,8.00
2022-09-21T20:18:38.714Z,8.00
2022-09-21T20:21:14.699Z,7.90
2022-09-21T20:23:43.816Z,7.50
2022-09-21T20:26:24.940Z,7.80
2022-09-21T20:31:26.506Z,7.70
2022-09-21T20:33:54.732Z,7.00
2022-09-21T20:36:23.355Z,7.60
2022-09-21T20:38:51.603Z,7.50
2022-09-21T20:41:22.230Z,7.50
2022-09-21T20:43:50.442Z,7.50
2022-09-21T20:46:18.766Z,8.00
2022-09-21T20:51:16.676Z,7.50
2022-09-21T20:53:45.290Z,7.50
2022-09-21T20:58:43.372Z,7.50
2022-09-21T21:01:11.613Z,7.40
2022-09-21T21:03:39.870Z,7.50
2022-09-21T21:06:13.764Z,7.40
2022-09-21T21:08:42.081Z,7.40
2022-09-21T21:11:11.216Z,7.10
2022-09-21T21:13:39.492Z,7.40
2022-09-21T21:16:12.041Z,7.40
2022-09-21T21:18:41.571Z,7.40
2022-09-21T21:21:10.122Z,7.30
2022-09-21T21:26:29.479Z,7.30
2022-09-21T21:29:10.291Z,7.30
2022-09-21T21:31:39.977Z,7.20
2022-09-21T21:34:08.534Z,7.20
2022-09-21T21:36:36.848Z,7.20
2022-09-21T21:39:05.338Z,7.10
2022-09-21T21:41:34.443Z,7.10
2022-09-21T21:44:03.073Z,7.10
2022-09-21T21:46:31.812Z,7.10
2022-09-21T21:49:01.836Z,7.20
2022-09-21T21:51:30.213Z,7.10
2022-09-21T21:56:27.139Z,7.10
2022-09-21T21:58:56.290Z,7.90
2022-09-21T22:01:28.108Z,7.20
2022-09-21T22:03:59.460Z,7.30
2022-09-21T22:06:31.994Z,7.20
2022-09-21T22:09:01.451Z,7.30
2022-09-21T22:11:32.232Z,7.30
2022-09-21T22:14:02.624Z,7.20
2022-09-21T22:16:34.202Z,7.20
2022-09-21T22:19:05.222Z,7.20
2022-09-21T22:21:40.900Z,7.10
2022-09-21T22:24:10.757Z,7.20
2022-09-21T22:26:46.065Z,7.60
2022-09-21T22:29:16.669Z,5.90
2022-09-21T22:31:48.238Z,7.10
2022-09-21T22:36:47.276Z,7.20
2022-09-21T22:41:44.688Z,7.20
2022-09-21T22:44:13.212Z,7.40
2022-09-21T22:46:41.789Z,7.30
2022-09-21T22:49:10.054Z,7.60
2022-09-21T22:51:38.952Z,7.50
2022-09-21T22:54:08.594Z,7.40
2022-09-21T22:56:37.086Z,7.20
2022-09-21T22:59:06.789Z,7.10
2022-09-21T23:01:37.658Z,7.00
2022-09-21T23:04:09.191Z,6.90
2022-09-21T23:06:40.223Z,6.80
2022-09-21T23:09:14.800Z,6.60
2022-09-21T23:14:17.548Z,6.50
2022-09-21T23:16:46.623Z,6.50
2022-09-21T23:19:16.361Z,8.10
2022-09-21T23:21:47.048Z,6.40
2022-09-21T23:24:16.945Z,6.40
2022-09-21T23:29:16.522Z,7.20
2022-09-21T23:34:16.108Z,6.20
2022-09-21T23:36:45.790Z,6.20
2022-09-21T23:39:16.615Z,6.20
2022-09-21T23:41:45.360Z,6.20
2022-09-21T23:44:13.545Z,6.10
2022-09-21T23:46:42.443Z,6.10
2022-09-21T23:49:11.311Z,6.10
2022-09-21T23:51:39.737Z,6.10
2022-09-21T23:54:08.543Z,6.00
2022-09-21T23:56:38.686Z,6.00
2022-09-21T23:59:06.974Z,6.00
